NV115 YSWG-YMEN
Flight info
| Callsign | NV115 |
|---|---|
| Flight time | 0h 42m |
| Altitude | 20000 |
| Route | WG W638 AY V147 TEMIS DCT MONTY DCT ESDAN |
| Aircraft | E50P/L-SBDFGRWY/LB2 |
Departure
| Time | 2026-05-08 05:05 |
|---|---|
| Airport | Wagga Wagga Airport (YSWG) |
Arrival
| Time | 2026-05-08 05:47 |
|---|---|
| Airport | Melbourne Essendon Airport (YMEN) |
| Time | Latitude | Longitude | Altitude | Speed | Heading |
|---|---|---|---|---|---|
| 2026-05-08 04:58 | -35.15918 | 147.46259 | 695 ft | 0 kts | 353° |
| 2026-05-08 05:02 | -35.15915 | 147.46260 | 692 ft | 2 kts | 18° |
| 2026-05-08 05:02 | -35.15927 | 147.46279 | 697 ft | 9 kts | 190° |
| 2026-05-08 05:02 | -35.16044 | 147.46295 | 703 ft | 22 kts | 153° |
| 2026-05-08 05:02 | -35.16225 | 147.46383 | 707 ft | 35 kts | 146° |
| 2026-05-08 05:03 | -35.16316 | 147.46499 | 712 ft | 11 kts | 71° |
| 2026-05-08 05:03 | -35.16237 | 147.46679 | 712 ft | 36 kts | 62° |
| 2026-05-08 05:03 | -35.16099 | 147.46999 | 716 ft | 47 kts | 62° |
| 2026-05-08 05:03 | -35.15952 | 147.47336 | 721 ft | 32 kts | 62° |
| 2026-05-08 05:04 | -35.15945 | 147.47429 | 727 ft | 10 kts | 153° |
| 2026-05-08 05:04 | -35.16047 | 147.47489 | 726 ft | 10 kts | 173° |
| 2026-05-08 05:04 | -35.16111 | 147.47379 | 723 ft | 42 kts | 241° |
| 2026-05-08 05:04 | -35.16386 | 147.46763 | 834 ft | 111 kts | 242° |
| 2026-05-08 05:05 | -35.16801 | 147.45800 | 1505 ft | 142 kts | 242° |
| 2026-05-08 05:05 | -35.17355 | 147.44696 | 2354 ft | 162 kts | 228° |
| 2026-05-08 05:05 | -35.18434 | 147.44069 | 3150 ft | 188 kts | 190° |
| 2026-05-08 05:05 | -35.19729 | 147.44375 | 4273 ft | 190 kts | 168° |
| 2026-05-08 05:06 | -35.20998 | 147.44534 | 5312 ft | 182 kts | 194° |
| 2026-05-08 05:06 | -35.22118 | 147.43827 | 6293 ft | 183 kts | 213° |
| 2026-05-08 05:06 | -35.23220 | 147.43006 | 7113 ft | 188 kts | 209° |
| 2026-05-08 05:06 | -35.24382 | 147.42298 | 8073 ft | 184 kts | 204° |
| 2026-05-08 05:07 | -35.25592 | 147.41673 | 8788 ft | 192 kts | 204° |
| 2026-05-08 05:07 | -35.26809 | 147.41013 | 9569 ft | 195 kts | 205° |
| 2026-05-08 05:07 | -35.28052 | 147.40329 | 10384 ft | 196 kts | 205° |
| 2026-05-08 05:07 | -35.29305 | 147.39634 | 11126 ft | 199 kts | 206° |
| 2026-05-08 05:08 | -35.30583 | 147.38933 | 11867 ft | 202 kts | 205° |
| 2026-05-08 05:08 | -35.31873 | 147.38223 | 12620 ft | 204 kts | 206° |
| 2026-05-08 05:08 | -35.33177 | 147.37507 | 13337 ft | 207 kts | 206° |
| 2026-05-08 05:08 | -35.34497 | 147.36780 | 14054 ft | 209 kts | 206° |
| 2026-05-08 05:09 | -35.35820 | 147.36052 | 14697 ft | 211 kts | 206° |
| 2026-05-08 05:09 | -35.37176 | 147.35306 | 15345 ft | 214 kts | 206° |
| 2026-05-08 05:09 | -35.38546 | 147.34552 | 15993 ft | 218 kts | 206° |
| 2026-05-08 05:09 | -35.39935 | 147.33785 | 16663 ft | 220 kts | 206° |
| 2026-05-08 05:10 | -35.41345 | 147.33010 | 17330 ft | 223 kts | 206° |
| 2026-05-08 05:10 | -35.44228 | 147.31421 | 18662 ft | 230 kts | 205° |
| 2026-05-08 05:10 | -35.45691 | 147.30613 | 19289 ft | 232 kts | 206° |
| 2026-05-08 05:11 | -35.47149 | 147.29809 | 19928 ft | 233 kts | 205° |
| 2026-05-08 05:11 | -35.48676 | 147.28964 | 20193 ft | 252 kts | 205° |
| 2026-05-08 05:11 | -35.50352 | 147.28038 | 20197 ft | 275 kts | 205° |
| 2026-05-08 05:11 | -35.52157 | 147.27039 | 20202 ft | 293 kts | 205° |
| 2026-05-08 05:12 | -35.54060 | 147.25989 | 20205 ft | 307 kts | 205° |
| 2026-05-08 05:12 | -35.56041 | 147.24893 | 20204 ft | 317 kts | 205° |
| 2026-05-08 05:12 | -35.58080 | 147.23766 | 20204 ft | 325 kts | 205° |
| 2026-05-08 05:12 | -35.60160 | 147.22613 | 20205 ft | 330 kts | 205° |
| 2026-05-08 05:13 | -35.62267 | 147.21446 | 20204 ft | 334 kts | 205° |
| 2026-05-08 05:13 | -35.64396 | 147.20266 | 20205 ft | 337 kts | 205° |
| 2026-05-08 05:13 | -35.66539 | 147.19076 | 20204 ft | 339 kts | 205° |
| 2026-05-08 05:13 | -35.68696 | 147.17880 | 20204 ft | 341 kts | 205° |
| 2026-05-08 05:14 | -35.70856 | 147.16679 | 20204 ft | 340 kts | 205° |
| 2026-05-08 05:14 | -35.73012 | 147.15482 | 20204 ft | 340 kts | 205° |
| 2026-05-08 05:14 | -35.75142 | 147.14296 | 20204 ft | 339 kts | 205° |
| 2026-05-08 05:14 | -35.77287 | 147.13104 | 20203 ft | 338 kts | 205° |
| 2026-05-08 05:15 | -35.79428 | 147.11911 | 20203 ft | 337 kts | 205° |
| 2026-05-08 05:15 | -35.81565 | 147.10721 | 20189 ft | 336 kts | 205° |
| 2026-05-08 05:15 | -35.83698 | 147.09532 | 20191 ft | 336 kts | 205° |
| 2026-05-08 05:15 | -35.85834 | 147.08341 | 20193 ft | 336 kts | 205° |
| 2026-05-08 05:16 | -35.87964 | 147.07151 | 20189 ft | 336 kts | 205° |
| 2026-05-08 05:16 | -35.90096 | 147.05962 | 20192 ft | 336 kts | 205° |
| 2026-05-08 05:16 | -35.92230 | 147.04771 | 20198 ft | 336 kts | 205° |
| 2026-05-08 05:16 | -35.94363 | 147.03576 | 20199 ft | 336 kts | 205° |
| 2026-05-08 05:17 | -35.96463 | 147.02403 | 20200 ft | 336 kts | 205° |
| 2026-05-08 05:17 | -35.98594 | 147.01209 | 20202 ft | 336 kts | 205° |
| 2026-05-08 05:17 | -36.00728 | 147.00014 | 20207 ft | 336 kts | 205° |
| 2026-05-08 05:17 | -36.02860 | 146.98820 | 20194 ft | 337 kts | 205° |
| 2026-05-08 05:18 | -36.04996 | 146.97622 | 20195 ft | 337 kts | 205° |
| 2026-05-08 05:18 | -36.07068 | 146.96256 | 20191 ft | 336 kts | 213° |
| 2026-05-08 05:18 | -36.08938 | 146.94525 | 20189 ft | 336 kts | 218° |
| 2026-05-08 05:18 | -36.10765 | 146.92731 | 20190 ft | 336 kts | 217° |
| 2026-05-08 05:19 | -36.12609 | 146.90946 | 20193 ft | 336 kts | 218° |
| 2026-05-08 05:19 | -36.14444 | 146.89157 | 20193 ft | 336 kts | 218° |
| 2026-05-08 05:19 | -36.16281 | 146.87357 | 20191 ft | 336 kts | 218° |
| 2026-05-08 05:19 | -36.18115 | 146.85562 | 20195 ft | 337 kts | 217° |
| 2026-05-08 05:20 | -36.19955 | 146.83763 | 20183 ft | 337 kts | 218° |
| 2026-05-08 05:20 | -36.21772 | 146.81983 | 20182 ft | 338 kts | 218° |
| 2026-05-08 05:20 | -36.23618 | 146.80174 | 20182 ft | 338 kts | 218° |
| 2026-05-08 05:20 | -36.25443 | 146.78386 | 20181 ft | 338 kts | 218° |
| 2026-05-08 05:21 | -36.27307 | 146.76556 | 20180 ft | 338 kts | 218° |
| 2026-05-08 05:21 | -36.29156 | 146.74743 | 20180 ft | 338 kts | 218° |
| 2026-05-08 05:21 | -36.31003 | 146.72928 | 20183 ft | 338 kts | 218° |
| 2026-05-08 05:21 | -36.32850 | 146.71113 | 20183 ft | 338 kts | 218° |
| 2026-05-08 05:22 | -36.34694 | 146.69299 | 20190 ft | 338 kts | 218° |
| 2026-05-08 05:22 | -36.36538 | 146.67485 | 20191 ft | 339 kts | 218° |
| 2026-05-08 05:22 | -36.38383 | 146.65668 | 20191 ft | 339 kts | 218° |
| 2026-05-08 05:22 | -36.40231 | 146.63849 | 20192 ft | 339 kts | 218° |
| 2026-05-08 05:23 | -36.42079 | 146.62025 | 20191 ft | 339 kts | 218° |
| 2026-05-08 05:23 | -36.43905 | 146.60226 | 20189 ft | 339 kts | 218° |
| 2026-05-08 05:23 | -36.45775 | 146.58378 | 20190 ft | 339 kts | 218° |
| 2026-05-08 05:23 | -36.47599 | 146.56578 | 20190 ft | 339 kts | 218° |
| 2026-05-08 05:24 | -36.49448 | 146.54749 | 20201 ft | 339 kts | 218° |
| 2026-05-08 05:24 | -36.51297 | 146.52921 | 20198 ft | 339 kts | 218° |
| 2026-05-08 05:24 | -36.53149 | 146.51089 | 20203 ft | 339 kts | 218° |
| 2026-05-08 05:24 | -36.54994 | 146.49263 | 20204 ft | 339 kts | 218° |
| 2026-05-08 05:25 | -36.56839 | 146.47433 | 20202 ft | 339 kts | 218° |
| 2026-05-08 05:25 | -36.58687 | 146.45602 | 20204 ft | 339 kts | 218° |
| 2026-05-08 05:25 | -36.60532 | 146.43771 | 20202 ft | 339 kts | 218° |
| 2026-05-08 05:25 | -36.62380 | 146.41937 | 20204 ft | 339 kts | 218° |
| 2026-05-08 05:26 | -36.64225 | 146.40104 | 20203 ft | 339 kts | 218° |
| 2026-05-08 05:26 | -36.66071 | 146.38271 | 20203 ft | 340 kts | 218° |
| 2026-05-08 05:26 | -36.67917 | 146.36435 | 20204 ft | 340 kts | 218° |
| 2026-05-08 05:26 | -36.69739 | 146.34619 | 20203 ft | 340 kts | 218° |
| 2026-05-08 05:27 | -36.71594 | 146.32774 | 20199 ft | 340 kts | 218° |
| 2026-05-08 05:27 | -36.73444 | 146.30930 | 20195 ft | 340 kts | 218° |
| 2026-05-08 05:27 | -36.75295 | 146.29082 | 20194 ft | 340 kts | 218° |
| 2026-05-08 05:27 | -36.77148 | 146.27233 | 20192 ft | 340 kts | 218° |
| 2026-05-08 05:28 | -36.79001 | 146.25390 | 20190 ft | 340 kts | 218° |
| 2026-05-08 05:28 | -36.80852 | 146.23539 | 20200 ft | 341 kts | 218° |
| 2026-05-08 05:28 | -36.82075 | 146.22313 | 20200 ft | 341 kts | 218° |
| 2026-05-08 05:28 | -36.83926 | 146.20460 | 20204 ft | 341 kts | 218° |
| 2026-05-08 05:29 | -36.86387 | 146.18003 | 20204 ft | 342 kts | 218° |
| 2026-05-08 05:29 | -36.88241 | 146.16144 | 20206 ft | 341 kts | 218° |
| 2026-05-08 05:29 | -36.90095 | 146.14285 | 20208 ft | 341 kts | 218° |
| 2026-05-08 05:29 | -36.91346 | 146.13030 | 20209 ft | 341 kts | 218° |
| 2026-05-08 05:30 | -36.93193 | 146.11178 | 20205 ft | 341 kts | 218° |
| 2026-05-08 05:30 | -36.95044 | 146.09320 | 20210 ft | 339 kts | 218° |
| 2026-05-08 05:30 | -36.96843 | 146.07512 | 20215 ft | 333 kts | 218° |
| 2026-05-08 05:30 | -36.98634 | 146.05712 | 20206 ft | 327 kts | 218° |
| 2026-05-08 05:31 | -37.00413 | 146.03922 | 19952 ft | 329 kts | 218° |
| 2026-05-08 05:31 | -37.02190 | 146.02134 | 19605 ft | 327 kts | 218° |
| 2026-05-08 05:31 | -37.03960 | 146.00352 | 19235 ft | 324 kts | 218° |
| 2026-05-08 05:31 | -37.05711 | 145.98584 | 18871 ft | 322 kts | 218° |
| 2026-05-08 05:32 | -37.07431 | 145.96855 | 18506 ft | 320 kts | 218° |
| 2026-05-08 05:32 | -37.09156 | 145.95114 | 18118 ft | 316 kts | 218° |
| 2026-05-08 05:32 | -37.10856 | 145.93396 | 17756 ft | 312 kts | 218° |
| 2026-05-08 05:32 | -37.12531 | 145.91702 | 17405 ft | 307 kts | 218° |
| 2026-05-08 05:33 | -37.14184 | 145.90033 | 17053 ft | 303 kts | 217° |
| 2026-05-08 05:33 | -37.15865 | 145.88338 | 16714 ft | 317 kts | 217° |
| 2026-05-08 05:33 | -37.17615 | 145.86567 | 16369 ft | 326 kts | 218° |
| 2026-05-08 05:33 | -37.19365 | 145.84791 | 16007 ft | 320 kts | 217° |
| 2026-05-08 05:34 | -37.21007 | 145.82998 | 15649 ft | 314 kts | 223° |
| 2026-05-08 05:34 | -37.22446 | 145.80970 | 15298 ft | 310 kts | 226° |
| 2026-05-08 05:34 | -37.23903 | 145.78982 | 14948 ft | 309 kts | 225° |
| 2026-05-08 05:34 | -37.25354 | 145.77012 | 14597 ft | 306 kts | 225° |
| 2026-05-08 05:35 | -37.26785 | 145.75023 | 14272 ft | 308 kts | 225° |
| 2026-05-08 05:35 | -37.28224 | 145.73023 | 13905 ft | 305 kts | 225° |
| 2026-05-08 05:35 | -37.29635 | 145.71072 | 13551 ft | 299 kts | 225° |
| 2026-05-08 05:35 | -37.31034 | 145.69142 | 13210 ft | 297 kts | 225° |
| 2026-05-08 05:36 | -37.32410 | 145.67234 | 12881 ft | 293 kts | 224° |
| 2026-05-08 05:36 | -37.33771 | 145.65348 | 12548 ft | 289 kts | 224° |
| 2026-05-08 05:36 | -37.35119 | 145.63482 | 12222 ft | 286 kts | 225° |
| 2026-05-08 05:36 | -37.36449 | 145.61632 | 11900 ft | 286 kts | 224° |
| 2026-05-08 05:37 | -37.37792 | 145.59770 | 11584 ft | 290 kts | 224° |
| 2026-05-08 05:37 | -37.39152 | 145.57893 | 11264 ft | 289 kts | 224° |
| 2026-05-08 05:37 | -37.40490 | 145.56023 | 10784 ft | 287 kts | 224° |
| 2026-05-08 05:37 | -37.41803 | 145.54180 | 10387 ft | 278 kts | 224° |
| 2026-05-08 05:38 | -37.43092 | 145.52377 | 10055 ft | 279 kts | 223° |
| 2026-05-08 05:38 | -37.44411 | 145.50603 | 9727 ft | 281 kts | 224° |
| 2026-05-08 05:38 | -37.45727 | 145.48761 | 9409 ft | 283 kts | 225° |
| 2026-05-08 05:38 | -37.47032 | 145.46909 | 9096 ft | 282 kts | 225° |
| 2026-05-08 05:39 | -37.48346 | 145.45078 | 8778 ft | 281 kts | 224° |
| 2026-05-08 05:39 | -37.49660 | 145.43258 | 8464 ft | 280 kts | 224° |
| 2026-05-08 05:39 | -37.50961 | 145.41442 | 8148 ft | 278 kts | 225° |
| 2026-05-08 05:39 | -37.52244 | 145.39636 | 7841 ft | 275 kts | 225° |
| 2026-05-08 05:40 | -37.53506 | 145.37881 | 7534 ft | 273 kts | 225° |
| 2026-05-08 05:40 | -37.54782 | 145.36106 | 7237 ft | 273 kts | 225° |
| 2026-05-08 05:40 | -37.56053 | 145.34334 | 6920 ft | 271 kts | 226° |
| 2026-05-08 05:40 | -37.57313 | 145.32565 | 6614 ft | 271 kts | 226° |
| 2026-05-08 05:41 | -37.58562 | 145.30795 | 6305 ft | 269 kts | 226° |
| 2026-05-08 05:41 | -37.59806 | 145.29041 | 6006 ft | 268 kts | 226° |
| 2026-05-08 05:41 | -37.61060 | 145.27301 | 5705 ft | 267 kts | 226° |
| 2026-05-08 05:41 | -37.62308 | 145.25563 | 5409 ft | 266 kts | 226° |
| 2026-05-08 05:42 | -37.63529 | 145.23851 | 5119 ft | 266 kts | 226° |
| 2026-05-08 05:42 | -37.64758 | 145.22112 | 4818 ft | 265 kts | 226° |
| 2026-05-08 05:42 | -37.65991 | 145.20389 | 4519 ft | 263 kts | 226° |
| 2026-05-08 05:42 | -37.67209 | 145.18665 | 4223 ft | 262 kts | 227° |
| 2026-05-08 05:43 | -37.68393 | 145.16993 | 3940 ft | 238 kts | 227° |
| 2026-05-08 05:43 | -37.69533 | 145.15404 | 3667 ft | 255 kts | 226° |
| 2026-05-08 05:43 | -37.70718 | 145.13726 | 3379 ft | 253 kts | 229° |
| 2026-05-08 05:43 | -37.71671 | 145.11866 | 3088 ft | 253 kts | 239° |
| 2026-05-08 05:44 | -37.72319 | 145.09792 | 3019 ft | 261 kts | 250° |
| 2026-05-08 05:44 | -37.72651 | 145.07562 | 2799 ft | 258 kts | 260° |
| 2026-05-08 05:44 | -37.72710 | 145.05288 | 2457 ft | 257 kts | 264° |
| 2026-05-08 05:44 | -37.72749 | 145.03047 | 2112 ft | 258 kts | 264° |
| 2026-05-08 05:45 | -37.72835 | 145.00778 | 1758 ft | 259 kts | 263° |
| 2026-05-08 05:45 | -37.72880 | 144.98566 | 1400 ft | 237 kts | 265° |
| 2026-05-08 05:45 | -37.72918 | 144.96584 | 1087 ft | 216 kts | 263° |
| 2026-05-08 05:45 | -37.72979 | 144.94909 | 826 ft | 169 kts | 262° |
| 2026-05-08 05:46 | -37.73017 | 144.93568 | 609 ft | 139 kts | 264° |
| 2026-05-08 05:46 | -37.73040 | 144.92473 | 434 ft | 113 kts | 259° |
| 2026-05-08 05:46 | -37.73077 | 144.91569 | 298 ft | 95 kts | 262° |
| 2026-05-08 05:46 | -37.73098 | 144.90817 | 253 ft | 76 kts | 267° |
| 2026-05-08 05:47 | -37.73113 | 144.90241 | 258 ft | 42 kts | 266° |
| 2026-05-08 05:47 | -37.73104 | 144.90015 | 257 ft | 15 kts | 318° |
| 2026-05-08 05:47 | -37.72991 | 144.90000 | 258 ft | 18 kts | 356° |
| 2026-05-08 05:47 | -37.72897 | 144.89944 | 260 ft | 16 kts | 273° |
| 2026-05-08 05:48 | -37.72868 | 144.89858 | 260 ft | 5 kts | 8° |
| 2026-05-08 05:48 | -37.72848 | 144.89860 | 261 ft | 0 kts | 5° |